createdAt,value
2019-02-10T00:00:32.541Z,19.23
2019-02-10T00:02:58.524Z,19.21
2019-02-10T00:05:24.584Z,19.22
2019-02-10T00:07:50.613Z,19.22
2019-02-10T00:10:16.713Z,19.21
2019-02-10T00:12:42.725Z,19.21
2019-02-10T00:15:08.783Z,19.20
2019-02-10T00:17:34.767Z,19.19
2019-02-10T00:20:00.771Z,19.19
2019-02-10T00:22:26.752Z,19.19
2019-02-10T00:24:52.760Z,19.18
2019-02-10T00:27:18.757Z,19.18
2019-02-10T00:29:44.725Z,19.18
2019-02-10T00:32:10.712Z,19.17
2019-02-10T00:34:36.710Z,19.17
2019-02-10T00:37:02.696Z,19.18
2019-02-10T00:39:28.716Z,19.17
2019-02-10T00:41:54.787Z,19.16
2019-02-10T00:44:20.800Z,19.16
2019-02-10T00:46:46.782Z,19.15
2019-02-10T00:49:12.759Z,19.15
2019-02-10T00:51:38.774Z,19.13
2019-02-10T00:54:04.755Z,19.13
2019-02-10T00:56:30.734Z,19.14
2019-02-10T00:58:56.747Z,19.12
2019-02-10T01:01:22.719Z,19.12
2019-02-10T01:03:48.751Z,19.12
2019-02-10T01:06:14.758Z,19.13
2019-02-10T01:08:40.771Z,19.11
2019-02-10T01:11:06.835Z,19.11
2019-02-10T01:13:32.963Z,19.11
2019-02-10T01:15:58.963Z,19.10
2019-02-10T01:18:24.955Z,19.10
2019-02-10T01:20:50.939Z,19.09
2019-02-10T01:23:16.951Z,19.09
2019-02-10T01:25:42.934Z,19.09
2019-02-10T01:28:08.942Z,19.08
2019-02-10T01:30:34.923Z,19.08
2019-02-10T01:33:00.929Z,19.06
2019-02-10T01:35:26.922Z,19.06
2019-02-10T01:37:52.983Z,19.06
2019-02-10T01:40:18.968Z,19.05
2019-02-10T01:42:44.940Z,19.06
2019-02-10T01:45:10.951Z,19.05
2019-02-10T01:47:36.928Z,19.04
2019-02-10T01:50:02.924Z,19.04
2019-02-10T01:52:28.923Z,19.04
2019-02-10T01:54:54.946Z,19.04
2019-02-10T01:57:20.929Z,19.03
2019-02-10T01:59:46.905Z,19.04
2019-02-10T02:02:12.912Z,19.03
2019-02-10T02:04:38.874Z,19.02
2019-02-10T02:07:04.885Z,19.02
2019-02-10T02:09:30.862Z,19.03
2019-02-10T02:11:56.854Z,19.01
2019-02-10T02:14:22.823Z,19.01
2019-02-10T02:16:48.801Z,19.01
2019-02-10T02:19:14.784Z,19.01
2019-02-10T02:21:40.759Z,19.01
2019-02-10T02:24:06.762Z,19.00
2019-02-10T02:26:32.745Z,19.00
2019-02-10T02:28:58.723Z,19.01
2019-02-10T02:31:24.695Z,18.99
2019-02-10T02:33:50.705Z,19.00
2019-02-10T02:36:16.710Z,19.00
2019-02-10T02:38:42.705Z,18.99
2019-02-10T02:41:08.737Z,18.99
2019-02-10T02:43:34.727Z,18.99
2019-02-10T02:46:00.724Z,18.97
2019-02-10T02:48:26.734Z,18.98
2019-02-10T02:50:52.724Z,18.98
2019-02-10T02:53:18.741Z,18.99
2019-02-10T02:55:44.725Z,18.97
2019-02-10T02:58:10.735Z,18.96
2019-02-10T03:00:36.709Z,18.96
2019-02-10T03:03:02.713Z,18.96
2019-02-10T03:05:28.715Z,18.96
2019-02-10T03:07:54.722Z,18.95
2019-02-10T03:10:20.813Z,18.95
2019-02-10T03:12:46.805Z,18.94
2019-02-10T03:15:12.888Z,18.94
2019-02-10T03:17:38.878Z,18.94
2019-02-10T03:20:04.889Z,18.94
2019-02-10T03:22:30.955Z,18.93
2019-02-10T03:24:56.939Z,18.93
2019-02-10T03:27:22.942Z,18.94
2019-02-10T03:29:48.934Z,18.94
2019-02-10T03:32:14.976Z,18.92
2019-02-10T03:34:40.969Z,18.92
2019-02-10T03:37:06.944Z,18.92
2019-02-10T03:39:32.976Z,18.92
2019-02-10T03:41:58.998Z,18.92
2019-02-10T03:44:25.045Z,18.91
2019-02-10T03:46:51.020Z,18.91
2019-02-10T03:49:17.086Z,18.89
2019-02-10T03:51:43.083Z,18.88
2019-02-10T03:54:09.151Z,18.88
2019-02-10T03:56:35.120Z,18.88
2019-02-10T03:59:01.109Z,18.88
2019-02-10T04:01:27.102Z,18.89
2019-02-10T04:03:53.069Z,18.88
2019-02-10T04:06:19.060Z,18.89
2019-02-10T04:08:45.033Z,18.89
2019-02-10T04:11:11.019Z,18.89
2019-02-10T04:13:36.990Z,18.88
2019-02-10T04:16:02.984Z,18.89
2019-02-10T04:18:28.992Z,18.88
2019-02-10T04:20:54.959Z,18.89
2019-02-10T04:23:21.003Z,18.87
2019-02-10T04:25:47.045Z,18.86
2019-02-10T04:28:13.053Z,18.84
2019-02-10T04:30:39.032Z,18.84
2019-02-10T04:33:05.116Z,18.83
2019-02-10T04:35:31.083Z,18.83
2019-02-10T04:37:57.069Z,18.83
2019-02-10T04:40:23.050Z,18.83
2019-02-10T04:42:49.035Z,18.83
2019-02-10T04:45:15.029Z,18.82
2019-02-10T04:47:41.004Z,18.82
2019-02-10T04:50:07.006Z,18.83
2019-02-10T04:52:32.988Z,18.83
2019-02-10T04:54:59.057Z,18.83
2019-02-10T04:57:25.043Z,18.83
2019-02-10T04:59:51.013Z,18.82
2019-02-10T05:02:17.018Z,18.84
2019-02-10T05:04:43.057Z,18.87
2019-02-10T05:07:09.072Z,18.91
2019-02-10T05:09:35.037Z,18.91
2019-02-10T05:12:01.048Z,18.94
2019-02-10T05:14:27.127Z,18.94
2019-02-10T05:16:53.127Z,18.96
2019-02-10T05:19:19.133Z,18.97
2019-02-10T05:21:45.112Z,18.97
2019-02-10T05:24:11.142Z,18.99
2019-02-10T05:26:37.202Z,19.01
2019-02-10T05:29:03.273Z,19.02
2019-02-10T05:31:29.283Z,19.03
2019-02-10T05:33:55.254Z,19.04
2019-02-10T05:36:21.230Z,19.05
2019-02-10T05:38:47.201Z,19.08
2019-02-10T05:41:13.180Z,19.08
2019-02-10T05:43:39.162Z,19.09
2019-02-10T05:46:05.257Z,19.11
2019-02-10T05:48:31.232Z,19.13
2019-02-10T05:50:57.220Z,19.14
2019-02-10T05:53:23.204Z,19.13
2019-02-10T05:55:49.205Z,19.14
2019-02-10T05:58:15.217Z,19.16
2019-02-10T06:00:41.207Z,19.17
2019-02-10T06:03:07.211Z,19.18
2019-02-10T06:05:33.187Z,19.19
2019-02-10T06:07:59.166Z,19.20
2019-02-10T06:10:25.140Z,19.21
2019-02-10T06:12:51.118Z,19.21
2019-02-10T06:15:17.162Z,19.22
2019-02-10T06:17:43.188Z,19.23
2019-02-10T06:20:09.164Z,19.25
2019-02-10T06:22:35.146Z,19.25
2019-02-10T06:25:01.193Z,19.27
2019-02-10T06:27:27.183Z,19.27
2019-02-10T06:29:53.188Z,19.30
2019-02-10T06:32:19.212Z,19.31
2019-02-10T06:34:45.201Z,19.32
2019-02-10T06:37:11.198Z,19.33
2019-02-10T06:39:37.191Z,19.34
2019-02-10T06:42:03.195Z,19.34
2019-02-10T06:44:29.193Z,19.35
2019-02-10T06:46:55.212Z,19.36
2019-02-10T06:49:21.301Z,19.36
2019-02-10T06:51:47.277Z,19.36
2019-02-10T06:54:13.273Z,19.35
2019-02-10T06:56:39.237Z,19.37
2019-02-10T06:59:05.219Z,19.36
2019-02-10T07:01:31.208Z,19.36
2019-02-10T07:03:57.189Z,19.37
2019-02-10T07:06:23.176Z,19.37
2019-02-10T07:08:49.176Z,19.38
2019-02-10T07:11:15.144Z,19.39
2019-02-10T07:13:41.130Z,19.39
2019-02-10T07:16:07.122Z,19.39
2019-02-10T07:18:33.353Z,19.40
2019-02-10T07:20:59.385Z,19.40
2019-02-10T07:23:25.383Z,19.42
2019-02-10T07:25:51.351Z,19.41
2019-02-10T07:28:17.366Z,19.43
2019-02-10T07:30:43.350Z,19.41
2019-02-10T07:33:09.350Z,19.41
2019-02-10T07:35:35.331Z,19.42
2019-02-10T07:38:01.338Z,19.41
2019-02-10T07:40:27.315Z,19.42
2019-02-10T07:42:53.301Z,19.42
2019-02-10T07:45:19.288Z,19.42
2019-02-10T07:47:45.279Z,19.42
2019-02-10T07:50:11.319Z,19.43
2019-02-10T07:52:37.307Z,19.43
2019-02-10T07:55:03.326Z,19.43
2019-02-10T07:57:29.330Z,19.43
2019-02-10T07:59:55.288Z,19.44
2019-02-10T08:02:21.282Z,19.44
2019-02-10T08:04:47.272Z,19.44
2019-02-10T08:07:13.253Z,19.45
2019-02-10T08:09:39.327Z,19.45
2019-02-10T08:12:05.342Z,19.45
2019-02-10T08:14:31.318Z,19.46
2019-02-10T08:16:57.324Z,19.46
2019-02-10T08:19:23.377Z,19.46
2019-02-10T08:21:49.360Z,19.46
2019-02-10T08:24:15.418Z,19.46
2019-02-10T08:26:41.413Z,19.47
2019-02-10T08:29:07.416Z,19.47
2019-02-10T08:31:33.489Z,19.47
2019-02-10T08:33:59.481Z,19.47
2019-02-10T08:36:25.458Z,19.48
2019-02-10T08:38:54.482Z,19.47
2019-02-10T08:41:19.234Z,19.48
2019-02-10T08:43:45.212Z,19.48
2019-02-10T08:46:11.216Z,19.48
2019-02-10T08:48:37.225Z,19.49
2019-02-10T08:51:03.204Z,19.49
2019-02-10T08:53:29.174Z,19.49
2019-02-10T08:55:55.166Z,19.49
2019-02-10T08:58:21.178Z,19.48
2019-02-10T09:00:47.159Z,19.49
2019-02-10T09:03:19.351Z,19.49
2019-02-10T09:05:41.934Z,19.51
2019-02-10T09:08:08.014Z,19.52
2019-02-10T09:10:33.999Z,19.52
2019-02-10T09:12:59.979Z,19.52
2019-02-10T09:15:26.000Z,19.52
2019-02-10T09:17:51.979Z,19.53
2019-02-10T09:20:17.967Z,19.52
2019-02-10T09:22:43.956Z,19.52
2019-02-10T09:25:10.042Z,19.52
2019-02-10T09:27:36.183Z,19.52
2019-02-10T09:30:02.234Z,19.52
2019-02-10T09:32:28.367Z,19.52
2019-02-10T09:34:54.464Z,19.53
2019-02-10T09:37:20.518Z,19.53
2019-02-10T09:39:46.612Z,19.52
2019-02-10T09:42:12.643Z,19.53
2019-02-10T09:44:38.676Z,19.54
2019-02-10T09:47:04.759Z,19.54
2019-02-10T09:49:30.772Z,19.54
2019-02-10T09:51:56.824Z,19.54
2019-02-10T09:54:22.812Z,19.55
2019-02-10T09:56:48.832Z,19.54
2019-02-10T09:59:14.802Z,19.56
2019-02-10T10:01:40.819Z,19.55
2019-02-10T10:04:06.840Z,19.55
2019-02-10T10:06:32.873Z,19.56
2019-02-10T10:08:58.871Z,19.56
2019-02-10T10:11:24.887Z,19.55
2019-02-10T10:13:50.878Z,19.56
2019-02-10T10:16:16.916Z,19.56
2019-02-10T10:18:42.950Z,19.65
2019-02-10T10:21:08.965Z,19.61
2019-02-10T10:23:34.987Z,19.59
2019-02-10T10:26:01.033Z,19.58
2019-02-10T10:28:27.074Z,19.59
2019-02-10T10:30:53.049Z,19.57
2019-02-10T10:33:19.068Z,19.59
2019-02-10T10:35:45.093Z,19.58
2019-02-10T10:38:11.210Z,19.60
2019-02-10T10:40:37.233Z,19.61
2019-02-10T10:43:03.239Z,19.61
2019-02-10T10:45:29.301Z,19.61
2019-02-10T10:47:55.308Z,19.62
2019-02-10T10:50:21.323Z,19.61
2019-02-10T10:52:47.322Z,19.61
2019-02-10T10:55:13.339Z,19.62
2019-02-10T10:57:39.410Z,19.62
2019-02-10T11:00:05.471Z,19.61
2019-02-10T11:02:31.631Z,19.60
2019-02-10T11:04:57.606Z,19.62
2019-02-10T11:07:24.714Z,19.62
2019-02-10T11:09:50.730Z,19.62
2019-02-10T11:12:16.775Z,19.61
2019-02-10T11:14:42.796Z,19.62
2019-02-10T11:17:10.469Z,19.62
2019-02-10T11:19:36.794Z,19.61
2019-02-10T11:22:02.820Z,19.61
2019-02-10T11:24:29.032Z,19.62
2019-02-10T11:26:55.082Z,19.61
2019-02-10T11:29:21.104Z,19.61
2019-02-10T11:31:47.156Z,19.61
2019-02-10T11:34:13.271Z,19.61
2019-02-10T11:36:39.277Z,19.61
2019-02-10T11:39:05.255Z,19.61
2019-02-10T11:41:31.250Z,19.61
2019-02-10T11:43:57.264Z,19.62
2019-02-10T11:46:23.365Z,19.61
2019-02-10T11:48:49.447Z,19.62
2019-02-10T11:51:15.471Z,19.61
2019-02-10T11:53:41.467Z,19.61
2019-02-10T11:56:07.486Z,19.61
2019-02-10T11:58:33.494Z,19.61
2019-02-10T12:00:59.524Z,19.61
2019-02-10T12:03:25.513Z,19.60
2019-02-10T12:05:51.535Z,19.60
2019-02-10T12:08:17.545Z,19.61
2019-02-10T12:10:43.618Z,19.61
2019-02-10T12:13:09.627Z,19.61
2019-02-10T12:15:35.671Z,19.61
2019-02-10T12:18:01.678Z,19.61
2019-02-10T12:20:27.704Z,19.62
2019-02-10T12:22:53.869Z,19.63
2019-02-10T12:25:19.848Z,19.63
2019-02-10T12:27:45.862Z,19.63
2019-02-10T12:30:14.640Z,19.63
2019-02-10T12:32:40.761Z,19.62
2019-02-10T12:35:06.766Z,19.64
2019-02-10T12:37:32.864Z,19.64
2019-02-10T12:39:59.972Z,19.65
2019-02-10T12:42:26.142Z,19.65
2019-02-10T12:44:52.107Z,19.65
2019-02-10T12:47:18.131Z,19.64
2019-02-10T12:49:44.215Z,19.64
2019-02-10T12:52:10.205Z,19.64
2019-02-10T12:54:36.313Z,19.65
2019-02-10T12:57:02.315Z,19.65
2019-02-10T12:59:28.300Z,19.64
2019-02-10T13:01:54.308Z,19.64
2019-02-10T13:04:20.290Z,19.65
2019-02-10T13:06:46.311Z,19.65
2019-02-10T13:09:12.313Z,19.65
2019-02-10T13:11:38.293Z,19.64
2019-02-10T13:14:04.302Z,19.64
2019-02-10T13:16:30.293Z,19.65
2019-02-10T13:18:56.398Z,19.64
2019-02-10T13:21:22.453Z,19.64
2019-02-10T13:23:48.489Z,19.64
2019-02-10T13:26:14.674Z,19.62
2019-02-10T13:28:40.659Z,19.63
2019-02-10T13:31:06.782Z,19.62
2019-02-10T13:33:32.887Z,19.63
2019-02-10T13:35:59.024Z,19.61
2019-02-10T13:38:26.119Z,19.62
2019-02-10T13:40:52.163Z,19.61
2019-02-10T13:43:18.208Z,19.62
2019-02-10T13:45:44.215Z,19.62
2019-02-10T13:48:10.204Z,19.62
2019-02-10T13:50:36.233Z,19.61
2019-02-10T13:53:02.247Z,19.62
2019-02-10T13:55:28.319Z,19.63
2019-02-10T13:57:55.364Z,19.63
2019-02-10T14:00:21.361Z,19.63
2019-02-10T14:02:47.383Z,19.63
2019-02-10T14:05:13.361Z,19.63
2019-02-10T14:07:39.354Z,19.63
2019-02-10T14:10:05.367Z,19.62
2019-02-10T14:12:31.365Z,19.63
2019-02-10T14:14:57.491Z,19.63
2019-02-10T14:17:23.668Z,19.63
2019-02-10T14:19:49.690Z,19.63
2019-02-10T14:22:15.717Z,19.62
2019-02-10T14:24:41.736Z,19.62
2019-02-10T14:27:07.716Z,19.63
2019-02-10T14:29:33.804Z,19.63
2019-02-10T14:31:59.820Z,19.61
2019-02-10T14:34:25.831Z,19.63
2019-02-10T14:36:51.816Z,19.70
2019-02-10T14:39:17.804Z,19.72
2019-02-10T14:41:43.831Z,19.68
2019-02-10T14:44:09.860Z,19.66
2019-02-10T14:46:35.894Z,19.65
2019-02-10T14:49:01.893Z,19.65
2019-02-10T14:51:27.959Z,19.65
2019-02-10T14:53:53.952Z,19.65
2019-02-10T14:56:20.002Z,19.66
2019-02-10T14:58:46.075Z,19.63
2019-02-10T15:01:12.055Z,19.63
2019-02-10T15:03:38.072Z,19.63
2019-02-10T15:06:04.140Z,19.62
2019-02-10T15:08:30.128Z,19.61
2019-02-10T15:10:56.159Z,19.61
2019-02-10T15:13:22.177Z,19.61
2019-02-10T15:15:49.659Z,19.60
2019-02-10T15:18:15.786Z,19.62
2019-02-10T15:20:41.801Z,19.60
2019-02-10T15:23:07.902Z,19.60
2019-02-10T15:25:33.906Z,19.59
2019-02-10T15:27:59.937Z,19.58
2019-02-10T15:30:25.970Z,19.58
2019-02-10T15:32:51.958Z,19.58
2019-02-10T15:35:17.981Z,19.59
2019-02-10T15:37:44.879Z,19.58
2019-02-10T15:40:10.918Z,19.58
2019-02-10T15:42:38.673Z,19.58
2019-02-10T15:45:04.686Z,19.58
2019-02-10T15:47:30.681Z,19.58
2019-02-10T15:49:56.733Z,19.58
2019-02-10T15:52:22.804Z,19.59
2019-02-10T15:54:48.880Z,19.58
2019-02-10T15:57:14.881Z,19.58
2019-02-10T15:59:40.945Z,19.59
2019-02-10T16:02:06.959Z,19.60
2019-02-10T16:04:33.053Z,19.60
2019-02-10T16:06:59.113Z,19.61
2019-02-10T16:09:25.093Z,19.60
2019-02-10T16:11:51.218Z,19.59
2019-02-10T16:14:17.331Z,19.58
2019-02-10T16:16:43.404Z,19.58
2019-02-10T16:19:09.400Z,19.58
2019-02-10T16:21:35.482Z,19.57
2019-02-10T16:24:01.891Z,19.58
2019-02-10T16:26:27.982Z,19.58
2019-02-10T16:28:53.995Z,19.56
2019-02-10T16:31:20.499Z,19.56
2019-02-10T16:33:46.599Z,19.56
2019-02-10T16:36:12.611Z,19.56
2019-02-10T16:38:38.603Z,19.56
2019-02-10T16:41:06.365Z,19.56
2019-02-10T16:43:32.956Z,19.54
2019-02-10T16:45:59.049Z,19.55
2019-02-10T16:48:25.101Z,19.54
2019-02-10T16:50:52.184Z,19.54
2019-02-10T16:53:18.216Z,19.52
2019-02-10T16:55:44.302Z,19.53
2019-02-10T16:58:10.338Z,19.53
2019-02-10T17:00:36.501Z,19.49
2019-02-10T17:03:02.552Z,19.53
2019-02-10T17:05:28.547Z,19.55
2019-02-10T17:07:54.759Z,19.55
2019-02-10T17:10:20.768Z,19.57
2019-02-10T17:12:46.767Z,19.57
2019-02-10T17:15:12.787Z,19.59
2019-02-10T17:17:38.813Z,19.58
2019-02-10T17:20:04.858Z,19.57
2019-02-10T17:22:30.913Z,19.56
2019-02-10T17:24:56.923Z,19.55
2019-02-10T17:27:22.930Z,19.54
2019-02-10T17:29:48.916Z,19.54
2019-02-10T17:32:14.945Z,19.55
2019-02-10T17:34:40.995Z,19.53
2019-02-10T17:37:07.002Z,19.54
2019-02-10T17:39:32.996Z,19.53
2019-02-10T17:41:58.996Z,19.53
2019-02-10T17:44:25.006Z,19.53
2019-02-10T17:46:51.049Z,19.53
2019-02-10T17:49:17.044Z,19.53
2019-02-10T17:51:43.063Z,19.51
2019-02-10T17:54:09.076Z,19.51
2019-02-10T17:56:35.080Z,19.50
2019-02-10T17:59:01.087Z,19.51
2019-02-10T18:01:27.083Z,19.49
2019-02-10T18:03:53.077Z,19.50
2019-02-10T18:06:19.071Z,19.50
2019-02-10T18:08:45.080Z,19.52
2019-02-10T18:11:11.054Z,19.53
2019-02-10T18:13:37.075Z,19.52
2019-02-10T18:16:03.139Z,19.52
2019-02-10T18:18:29.177Z,19.51
2019-02-10T18:20:55.180Z,19.52
2019-02-10T18:23:21.215Z,19.49
2019-02-10T18:25:47.206Z,19.52
2019-02-10T18:28:13.217Z,19.52
2019-02-10T18:30:39.207Z,19.51
2019-02-10T18:33:05.271Z,19.52
2019-02-10T18:35:31.305Z,19.49
2019-02-10T18:37:57.334Z,19.51
2019-02-10T18:40:23.321Z,19.49
2019-02-10T18:42:49.349Z,19.50
2019-02-10T18:45:15.356Z,19.49
2019-02-10T18:47:41.358Z,19.51
2019-02-10T18:50:07.355Z,19.51
2019-02-10T18:52:33.420Z,19.52
2019-02-10T18:54:59.432Z,19.52
2019-02-10T18:57:25.435Z,19.51
2019-02-10T18:59:51.446Z,19.52
2019-02-10T19:02:17.434Z,19.52
2019-02-10T19:04:43.476Z,19.51
2019-02-10T19:07:09.516Z,19.52
2019-02-10T19:09:35.547Z,19.51
2019-02-10T19:12:01.531Z,19.52
2019-02-10T19:14:27.591Z,19.54
2019-02-10T19:16:53.703Z,19.52
2019-02-10T19:19:19.737Z,19.52
2019-02-10T19:21:45.780Z,19.53
2019-02-10T19:24:11.757Z,19.52
2019-02-10T19:26:38.067Z,19.52
2019-02-10T19:29:04.103Z,19.54
2019-02-10T19:31:30.206Z,19.53
2019-02-10T19:33:56.309Z,19.54
2019-02-10T19:36:22.374Z,19.53
2019-02-10T19:38:48.494Z,19.52
2019-02-10T19:41:14.657Z,19.52
2019-02-10T19:43:40.698Z,19.52
2019-02-10T19:46:06.714Z,19.52
2019-02-10T19:48:32.733Z,19.53
2019-02-10T19:50:58.767Z,19.54
2019-02-10T19:53:25.048Z,19.53
2019-02-10T19:55:51.108Z,19.52
2019-02-10T19:58:17.213Z,19.52
2019-02-10T20:00:43.361Z,19.52
2019-02-10T20:03:09.442Z,19.49
2019-02-10T20:05:35.427Z,19.49
2019-02-10T20:08:01.499Z,19.49
2019-02-10T20:10:27.489Z,19.49
2019-02-10T20:12:53.549Z,19.49
2019-02-10T20:15:19.603Z,19.49
2019-02-10T20:17:45.629Z,19.49
2019-02-10T20:20:11.744Z,19.48
2019-02-10T20:22:37.855Z,19.47
2019-02-10T20:25:03.822Z,19.48
2019-02-10T20:27:29.843Z,19.48
2019-02-10T20:29:55.880Z,19.47
2019-02-10T20:32:21.884Z,19.48
2019-02-10T20:34:47.911Z,19.49
2019-02-10T20:37:13.935Z,19.47
2019-02-10T20:39:39.909Z,19.49
2019-02-10T20:42:12.237Z,19.49
2019-02-10T20:44:34.676Z,19.50
2019-02-10T20:47:00.731Z,19.50
2019-02-10T20:49:26.734Z,19.48
2019-02-10T20:51:52.721Z,19.49
2019-02-10T20:54:19.723Z,19.48
2019-02-10T20:56:45.736Z,19.50
2019-02-10T20:59:11.731Z,19.49
2019-02-10T21:01:37.731Z,19.48
2019-02-10T21:04:04.866Z,19.48
2019-02-10T21:06:30.998Z,19.46
2019-02-10T21:08:57.067Z,19.48
2019-02-10T21:11:23.076Z,19.48
2019-02-10T21:13:49.089Z,19.48
2019-02-10T21:16:15.069Z,19.48
2019-02-10T21:18:43.898Z,19.48
2019-02-10T21:21:09.946Z,19.49
2019-02-10T21:23:35.947Z,19.49
2019-02-10T21:26:01.934Z,19.48
2019-02-10T21:28:27.934Z,19.50
2019-02-10T21:30:53.916Z,19.49
2019-02-10T21:33:19.900Z,19.48
2019-02-10T21:35:45.891Z,19.48
2019-02-10T21:38:11.868Z,19.47
2019-02-10T21:40:37.959Z,19.47
2019-02-10T21:43:03.990Z,19.46
2019-02-10T21:45:29.982Z,19.44
2019-02-10T21:47:56.002Z,19.43
2019-02-10T21:50:23.095Z,19.42
2019-02-10T21:52:49.110Z,19.42
2019-02-10T21:55:16.559Z,19.41
2019-02-10T21:57:42.840Z,19.41
2019-02-10T22:00:08.824Z,19.39
2019-02-10T22:02:34.873Z,19.37
2019-02-10T22:05:00.859Z,19.38
2019-02-10T22:07:26.844Z,19.36
2019-02-10T22:09:52.896Z,19.34
2019-02-10T22:12:18.928Z,19.33
2019-02-10T22:14:44.915Z,19.33
2019-02-10T22:17:10.946Z,19.32
2019-02-10T22:19:36.963Z,19.31
2019-02-10T22:22:03.108Z,19.32
2019-02-10T22:24:29.097Z,19.32
2019-02-10T22:26:55.072Z,19.30
2019-02-10T22:29:21.179Z,19.28
2019-02-10T22:31:47.185Z,19.27
2019-02-10T22:34:14.161Z,19.27
2019-02-10T22:36:40.230Z,19.25
2019-02-10T22:39:06.328Z,19.24
2019-02-10T22:41:32.321Z,19.24
2019-02-10T22:43:58.288Z,19.26
2019-02-10T22:46:24.300Z,19.21
2019-02-10T22:48:50.307Z,19.25
2019-02-10T22:51:16.293Z,19.23
2019-02-10T22:53:42.303Z,19.21
2019-02-10T22:56:08.653Z,19.19
2019-02-10T22:58:34.642Z,19.18
2019-02-10T23:01:00.635Z,19.16
2019-02-10T23:03:26.631Z,19.16
2019-02-10T23:05:52.686Z,19.15
2019-02-10T23:08:18.716Z,19.16
2019-02-10T23:10:44.740Z,19.16
2019-02-10T23:13:10.754Z,19.16
2019-02-10T23:15:36.732Z,19.14
2019-02-10T23:18:04.265Z,19.13
2019-02-10T23:20:30.310Z,19.11
2019-02-10T23:22:56.333Z,19.11
2019-02-10T23:25:22.321Z,19.11
2019-02-10T23:27:48.329Z,19.12
2019-02-10T23:30:14.309Z,19.08
2019-02-10T23:32:40.332Z,19.08
2019-02-10T23:35:06.337Z,19.08
2019-02-10T23:37:32.331Z,19.06
2019-02-10T23:39:58.331Z,19.05
2019-02-10T23:42:24.329Z,19.06
2019-02-10T23:44:50.324Z,19.04
2019-02-10T23:47:16.331Z,19.03
2019-02-10T23:49:42.332Z,19.01
2019-02-10T23:52:08.299Z,19.04
2019-02-10T23:54:34.312Z,19.03
2019-02-10T23:57:00.284Z,19.00
2019-02-10T23:59:26.261Z,19.01
